Flight Track Log - Related Links

Times and Time Zones

All times are in EDT time to prevent confusion due to time zone crossing. See the SKW6492 flight status page for this flight to view local times or setup timezone preferences in your user account.

Time Position Orientation Groundspeed Altitude Reporting Facility
EDT Latitude Longitude Course Direction KTS MPH feet Rate Location/Type
Tue 09:52:39 PM 39.9500 -104.6833 346° North 210 242 8,100  Level Denver TRACON
Tue 09:53:39 PM 40.0167 -104.6667 11° North 264 304 9,900 1,290 Climbing Denver TRACON
Tue 09:54:00 PM 40.1593 -104.7695 347° North  Level FlightAware Approximate
Tue 09:54:12 PM 40.0661 -104.6606 North 287 330 10,100  Level Denver Center
Tue 09:55:00 PM 40.2633 -104.8006 347° North  Level FlightAware Approximate
Tue 09:55:14 PM 40.1592 -104.6839 349° North 337 388 12,500  Level Denver Center
Tue 09:56:00 PM 40.3669 -104.8334 346° North  Level FlightAware Approximate
Tue 09:56:27 PM 40.2497 -104.7081 348° North 330 380 14,700  Level Denver Center
Tue 09:57:00 PM 40.4702 -104.8678 346° North  Level FlightAware Approximate
Tue 09:57:29 PM 40.3647 -104.7386 349° North 341 392 16,900  Level Denver Center
Tue 09:58:31 PM 40.4692 -104.7678 348° North 359 413 17,800 933 Climbing Denver Center
Tue 09:59:44 PM 40.5725 -104.7947 349° North 374 430 19,000 1,200 Climbing Denver Center
Tue 10:00:46 PM 40.6994 -104.8286 349° North 376 433 20,500 1,161 Climbing Denver Center
Tue 10:01:48 PM 40.8006 -104.8617 346° North 375 432 21,400 1,024 Climbing Denver Center
Tue 10:02:49 PM 40.9022 -104.9064 342° North 383 441 22,600 829 Climbing Denver Center
Tue 10:03:51 PM 41.0053 -104.9578 339° North 390 449 23,100 484 Climbing Denver Center
Tue 10:04:53 PM 41.1289 -105.0192 339° North 415 478 23,600 444 Climbing Denver Center
Tue 10:06:06 PM 41.2375 -105.0717 340° North 431 496 24,100 533 Climbing Denver Center
Tue 10:07:08 PM 41.3842 -105.1444 340° North 439 505 24,800 532 Climbing Denver Center
Tue 10:08:10 PM 41.4950 -105.1969 340° North 442 509 25,200 488 Climbing Denver Center
Tue 10:09:11 PM 41.6131 -105.2900 329° Northwest 434 499 25,800 829 Climbing Denver Center
Tue 10:10:13 PM 41.7025 -105.3842 322° Northwest 427 491 26,900 908 Climbing Denver Center
Tue 10:12:16 PM 41.8919 -105.5894 321° Northwest 421 484 28,600 1,011 Climbing Denver Center
Tue 10:13:17 PM 41.9772 -105.6806 322° Northwest 410 472 30,000 1,073 Climbing Denver Center
Tue 10:14:19 PM 42.0714 -105.7844 321° Northwest 395 455 30,800 634 Climbing Denver Center
Tue 10:15:20 PM 42.1497 -105.8728 320° Northwest 386 444 31,300 488 Climbing Denver Center
Tue 10:16:22 PM 42.2314 -105.9625 321° Northwest 391 450 31,800 228 Climbing Denver Center
Tue 10:18:24 PM 42.3956 -106.1447 321° Northwest 397 457 32,000 65 Climbing Denver Center
Tue 10:19:26 PM 42.4933 -106.2542 320° Northwest 407 468 32,000  Level Denver Center
Tue 10:20:27 PM 42.5783 -106.3500 320° Northwest 414 476 32,000  Level Denver Center
Tue 10:21:29 PM 42.6786 -106.4617 321° Northwest 415 478 32,000  Level Denver Center
Tue 10:22:30 PM 42.7506 -106.5439 320° Northwest 422 486 32,000  Level Denver Center
Tue 10:23:32 PM 42.8667 -106.6756 320° Northwest 424 488 32,000  Level Denver Center
Tue 10:24:33 PM 42.9536 -106.7756 320° Northwest 426 490 32,000  Level Denver Center
Tue 10:25:34 PM 43.0556 -106.8917 320° Northwest 426 490 32,000  Level Denver Center
Tue 10:26:36 PM 43.1425 -106.9911 320° Northwest 427 491 32,000  Level Denver Center
Tue 10:27:37 PM 43.2369 -107.1008 320° Northwest 428 493 32,000  Level Denver Center
Tue 10:28:49 PM 43.3533 -107.2381 319° Northwest 433 498 32,000  Level Salt Lake Center
Tue 10:29:50 PM 43.4403 -107.3389 320° Northwest 427 491 32,000  Level Salt Lake Center
Tue 10:30:51 PM 43.5278 -107.4389 320° Northwest 426 490 32,000 -146 Level Salt Lake Center
Tue 10:31:53 PM 43.6275 -107.5575 319° Northwest 424 488 31,700 -1,122 Descending Salt Lake Center
Tue 10:32:54 PM 43.7164 -107.6625 320° Northwest 437 503 29,700 -2,146 Descending Salt Lake Center
Tue 10:33:56 PM 43.8078 -107.7717 319° Northwest 451 519 27,300 -2,537 Descending Salt Lake Center
Tue 10:34:57 PM 43.9067 -107.8917 319° Northwest 424 488 24,500 -2,537 Descending Salt Lake Center
Tue 10:35:59 PM 43.9906 -107.9931 319° Northwest 418 481 22,100 -2,537 Descending Salt Lake Center
Tue 10:37:00 PM 44.0833 -108.1217 315° West 420 483 19,300 -2,390 Descending Salt Lake Center
Tue 10:38:02 PM 44.1650 -108.2125 321° Northwest 409 471 17,200 -2,049 Descending Salt Lake Center
Tue 10:39:03 PM 44.2403 -108.2942 322° Northwest 384 442 15,100 -2,195 Descending Salt Lake Center
Tue 10:40:05 PM 44.3256 -108.3883 322° Northwest 361 415 12,700 -2,195 Descending Salt Lake Center
Tue 10:41:06 PM 44.4025 -108.4761 321° Northwest 362 417 10,600 -1,610 Descending Salt Lake Center
Tue 10:42:08 PM 44.4858 -108.5683 322° Northwest 352 405 9,400 -585 Descending Salt Lake Center
Tue 10:43:09 PM 44.5397 -108.6281 322° Northwest 290 334 9,400 -148 Level Salt Lake Center
Tue 10:44:10 PM 44.5936 -108.6897 321° Northwest 267 307 9,100 -634 Descending Salt Lake Center
Tue 10:45:12 PM 44.6517 -108.7578 320° Northwest 252 290 8,100 -732 Descending Salt Lake Center
Tue 10:46:13 PM 44.6364 -108.8208 251° West 198 228 7,600 -244 Descending Salt Lake Center
Tue 10:47:15 PM 44.6089 -108.8700 232° Southwest 176 203 7,600  Level Salt Lake Center

Login

Don't have an account? Register now (free) for customized features, flight alerts, and more!